sensor_id;sensor_type;location;lat;lon;timestamp;pressure;altitude;pressure_sealevel;temperature;humidity
8477;BME280;4275;42.854;23.222;2023-06-10T00:00:59;105966.59;;;-141.02;100.00
8477;BME280;4275;42.854;23.222;2023-06-10T00:03:26;105716.31;;;-141.02;100.00
8477;BME280;4275;42.854;23.222;2023-06-10T00:05:54;105716.31;;;-141.02;100.00
8477;BME280;4275;42.854;23.222;2023-06-10T00:08:21;105716.31;;;-141.02;100.00
8477;BME280;4275;42.854;23.222;2023-06-10T00:10:49;105466.03;;;-141.02;100.00
8477;BME280;4275;42.854;23.222;2023-06-10T00:13:16;105215.78;;;-141.02;100.00
8477;BME280;4275;42.854;23.222;2023-06-10T00:15:43;105215.78;;;-141.02;100.00
8477;BME280;4275;42.854;23.222;2023-06-10T00:18:10;104965.56;;;-141.02;100.00
8477;BME280;4275;42.854;23.222;2023-06-10T00:20:37;104965.56;;;-141.02;100.00
8477;BME280;4275;42.854;23.222;2023-06-10T00:23:04;105215.78;;;-141.02;100.00
8477;BME280;4275;42.854;23.222;2023-06-10T00:25:34;105466.03;;;-141.02;100.00
8477;BME280;4275;42.854;23.222;2023-06-10T00:28:02;105215.78;;;-141.02;100.00
8477;BME280;4275;42.854;23.222;2023-06-10T00:30:29;105215.78;;;-141.02;100.00
8477;BME280;4275;42.854;23.222;2023-06-10T00:32:56;105215.78;;;-141.02;100.00
8477;BME280;4275;42.854;23.222;2023-06-10T00:35:23;105215.78;;;-141.02;100.00
8477;BME280;4275;42.854;23.222;2023-06-10T00:37:50;104965.56;;;-141.02;100.00
8477;BME280;4275;42.854;23.222;2023-06-10T00:43:40;104965.56;;;-141.02;100.00
8477;BME280;4275;42.854;23.222;2023-06-10T00:46:07;105215.78;;;-141.02;100.00
8477;BME280;4275;42.854;23.222;2023-06-10T00:48:35;104965.56;;;-141.02;100.00
8477;BME280;4275;42.854;23.222;2023-06-10T00:51:02;105215.78;;;-141.02;100.00
8477;BME280;4275;42.854;23.222;2023-06-10T00:53:29;105466.03;;;-141.02;100.00
8477;BME280;4275;42.854;23.222;2023-06-10T00:55:56;105716.31;;;-141.02;100.00
8477;BME280;4275;42.854;23.222;2023-06-10T01:01:47;105215.78;;;-141.02;100.00
8477;BME280;4275;42.854;23.222;2023-06-10T01:10:59;104965.56;;;-141.02;100.00
8477;BME280;4275;42.854;23.222;2023-06-10T01:13:28;104965.56;;;-141.02;100.00
8477;BME280;4275;42.854;23.222;2023-06-10T01:15:57;104965.56;;;-141.02;100.00
8477;BME280;4275;42.854;23.222;2023-06-10T01:18:31;104965.56;;;-141.02;100.00
8477;BME280;4275;42.854;23.222;2023-06-10T01:20:58;105215.78;;;-141.02;100.00
8477;BME280;4275;42.854;23.222;2023-06-10T01:23:27;105466.03;;;-141.02;100.00
8477;BME280;4275;42.854;23.222;2023-06-10T01:25:58;105466.03;;;-141.02;100.00
8477;BME280;4275;42.854;23.222;2023-06-10T01:32:00;105966.59;;;-141.02;100.00
8477;BME280;4275;42.854;23.222;2023-06-10T01:34:30;106717.56;;;-141.02;100.00
8477;BME280;4275;42.854;23.222;2023-06-10T01:37:02;107218.31;;;-141.02;100.00
8477;BME280;4275;42.854;23.222;2023-06-10T01:39:51;107719.09;;;-141.02;100.00
8477;BME280;4275;42.854;23.222;2023-06-10T01:42:19;107969.53;;;-141.02;100.00
8477;BME280;4275;42.854;23.222;2023-06-10T01:44:47;107971.50;;;-141.02;100.00
8477;BME280;4275;42.854;23.222;2023-06-10T01:47:14;107971.50;;;-141.02;100.00
8477;BME280;4275;42.854;23.222;2023-06-10T01:49:41;107971.50;;;-141.02;100.00
8477;BME280;4275;42.854;23.222;2023-06-10T01:52:08;107971.50;;;-141.02;100.00
8477;BME280;4275;42.854;23.222;2023-06-10T01:54:35;107971.50;;;-141.02;100.00
8477;BME280;4275;42.854;23.222;2023-06-10T01:57:04;107971.50;;;-141.02;100.00
8477;BME280;4275;42.854;23.222;2023-06-10T01:59:31;107971.50;;;-141.02;100.00
8477;BME280;4275;42.854;23.222;2023-06-10T02:01:58;107971.50;;;-141.02;100.00
8477;BME280;4275;42.854;23.222;2023-06-10T02:04:25;107971.50;;;-141.02;100.00
8477;BME280;4275;42.854;23.222;2023-06-10T02:06:52;107971.50;;;-141.02;100.00
8477;BME280;4275;42.854;23.222;2023-06-10T02:09:21;107971.50;;;-141.02;100.00
8477;BME280;4275;42.854;23.222;2023-06-10T02:11:48;107971.50;;;-141.02;100.00
8477;BME280;4275;42.854;23.222;2023-06-10T02:14:17;107971.50;;;-141.02;100.00
8477;BME280;4275;42.854;23.222;2023-06-10T02:16:44;107971.50;;;-141.02;100.00
8477;BME280;4275;42.854;23.222;2023-06-10T02:19:12;107971.50;;;-141.02;100.00
8477;BME280;4275;42.854;23.222;2023-06-10T02:21:39;107971.50;;;-141.02;100.00
8477;BME280;4275;42.854;23.222;2023-06-10T02:24:07;107971.50;;;-141.02;100.00
8477;BME280;4275;42.854;23.222;2023-06-10T02:26:34;107971.50;;;-141.02;100.00
8477;BME280;4275;42.854;23.222;2023-06-10T02:29:01;107971.50;;;-141.02;100.00
8477;BME280;4275;42.854;23.222;2023-06-10T02:31:30;107971.50;;;-141.02;100.00
8477;BME280;4275;42.854;23.222;2023-06-10T02:33:57;107971.50;;;-141.02;100.00
8477;BME280;4275;42.854;23.222;2023-06-10T02:36:24;107971.50;;;-141.02;100.00
8477;BME280;4275;42.854;23.222;2023-06-10T02:38:53;107971.50;;;-141.02;100.00
8477;BME280;4275;42.854;23.222;2023-06-10T02:41:21;107971.50;;;-141.02;100.00
8477;BME280;4275;42.854;23.222;2023-06-10T02:43:48;107971.50;;;-141.02;100.00
8477;BME280;4275;42.854;23.222;2023-06-10T02:49:49;107971.50;;;-141.02;100.00
8477;BME280;4275;42.854;23.222;2023-06-10T02:52:16;107971.50;;;-141.02;100.00
8477;BME280;4275;42.854;23.222;2023-06-10T02:54:43;107971.50;;;-141.02;100.00
8477;BME280;4275;42.854;23.222;2023-06-10T02:57:11;107971.50;;;-141.02;100.00
8477;BME280;4275;42.854;23.222;2023-06-10T02:59:39;107971.50;;;-141.02;100.00
8477;BME280;4275;42.854;23.222;2023-06-10T03:02:07;107971.50;;;-141.02;100.00
8477;BME280;4275;42.854;23.222;2023-06-10T03:04:34;107971.50;;;-141.02;100.00
8477;BME280;4275;42.854;23.222;2023-06-10T03:07:04;107971.50;;;-141.02;100.00
8477;BME280;4275;42.854;23.222;2023-06-10T03:09:32;107971.50;;;-141.02;100.00
8477;BME280;4275;42.854;23.222;2023-06-10T03:11:59;107971.50;;;-141.02;100.00
8477;BME280;4275;42.854;23.222;2023-06-10T03:14:27;107971.50;;;-141.02;100.00
8477;BME280;4275;42.854;23.222;2023-06-10T03:16:54;107971.50;;;-141.02;100.00
8477;BME280;4275;42.854;23.222;2023-06-10T03:19:21;107971.50;;;-141.02;100.00
8477;BME280;4275;42.854;23.222;2023-06-10T03:21:50;107971.50;;;-141.02;100.00
8477;BME280;4275;42.854;23.222;2023-06-10T03:24:23;107971.50;;;-141.02;100.00
8477;BME280;4275;42.854;23.222;2023-06-10T03:26:50;107971.50;;;-141.02;100.00
8477;BME280;4275;42.854;23.222;2023-06-10T03:29:17;107971.50;;;-141.02;100.00
8477;BME280;4275;42.854;23.222;2023-06-10T03:31:44;107971.50;;;-141.02;100.00
8477;BME280;4275;42.854;23.222;2023-06-10T03:34:11;107971.50;;;-141.02;100.00
8477;BME280;4275;42.854;23.222;2023-06-10T03:36:38;107971.50;;;-141.02;100.00
8477;BME280;4275;42.854;23.222;2023-06-10T03:39:08;107971.50;;;-141.02;100.00
8477;BME280;4275;42.854;23.222;2023-06-10T03:41:36;107971.50;;;-141.02;100.00
8477;BME280;4275;42.854;23.222;2023-06-10T03:44:04;107971.50;;;-141.02;100.00
8477;BME280;4275;42.854;23.222;2023-06-10T03:46:30;107971.50;;;-141.02;100.00
8477;BME280;4275;42.854;23.222;2023-06-10T03:48:57;107971.50;;;-141.02;100.00
8477;BME280;4275;42.854;23.222;2023-06-10T03:51:26;107971.50;;;-141.02;100.00
8477;BME280;4275;42.854;23.222;2023-06-10T03:53:53;107971.50;;;-141.02;100.00
8477;BME280;4275;42.854;23.222;2023-06-10T03:56:20;107971.50;;;-141.02;100.00
8477;BME280;4275;42.854;23.222;2023-06-10T03:58:48;107971.50;;;-141.02;100.00
8477;BME280;4275;42.854;23.222;2023-06-10T04:01:15;107971.50;;;-141.02;100.00
8477;BME280;4275;42.854;23.222;2023-06-10T04:03:46;107971.50;;;-141.02;100.00
8477;BME280;4275;42.854;23.222;2023-06-10T04:06:14;107971.50;;;-141.02;100.00
8477;BME280;4275;42.854;23.222;2023-06-10T04:08:41;107971.50;;;-141.02;100.00
8477;BME280;4275;42.854;23.222;2023-06-10T04:11:09;107971.50;;;-141.02;100.00
8477;BME280;4275;42.854;23.222;2023-06-10T04:13:36;107971.50;;;-141.02;100.00
8477;BME280;4275;42.854;23.222;2023-06-10T04:16:05;107971.50;;;-141.02;100.00
8477;BME280;4275;42.854;23.222;2023-06-10T04:18:32;107971.50;;;-141.02;100.00
8477;BME280;4275;42.854;23.222;2023-06-10T04:20:59;107971.50;;;-141.02;100.00
8477;BME280;4275;42.854;23.222;2023-06-10T04:23:26;107971.50;;;-141.02;100.00
8477;BME280;4275;42.854;23.222;2023-06-10T04:25:54;107971.50;;;-141.02;100.00
8477;BME280;4275;42.854;23.222;2023-06-10T04:28:21;107971.50;;;-141.02;100.00
8477;BME280;4275;42.854;23.222;2023-06-10T04:30:48;107971.50;;;-141.02;100.00
8477;BME280;4275;42.854;23.222;2023-06-10T04:33:16;107971.50;;;-141.02;100.00
8477;BME280;4275;42.854;23.222;2023-06-10T04:35:44;107971.50;;;-141.02;100.00
8477;BME280;4275;42.854;23.222;2023-06-10T04:38:13;107971.50;;;-141.02;100.00
8477;BME280;4275;42.854;23.222;2023-06-10T04:40:40;107971.50;;;-141.02;100.00
8477;BME280;4275;42.854;23.222;2023-06-10T04:43:07;107971.50;;;-141.02;100.00
8477;BME280;4275;42.854;23.222;2023-06-10T04:45:34;107971.50;;;-141.02;100.00
8477;BME280;4275;42.854;23.222;2023-06-10T04:48:01;107971.50;;;-141.02;100.00
8477;BME280;4275;42.854;23.222;2023-06-10T04:50:30;107971.50;;;-141.02;100.00
8477;BME280;4275;42.854;23.222;2023-06-10T04:52:58;107971.50;;;-141.02;100.00
8477;BME280;4275;42.854;23.222;2023-06-10T04:55:25;107971.50;;;-141.02;100.00
8477;BME280;4275;42.854;23.222;2023-06-10T04:57:52;107971.50;;;-141.02;100.00
8477;BME280;4275;42.854;23.222;2023-06-10T05:00:21;107971.50;;;-141.02;100.00
8477;BME280;4275;42.854;23.222;2023-06-10T05:02:48;107971.50;;;-141.02;100.00
8477;BME280;4275;42.854;23.222;2023-06-10T05:05:17;107971.50;;;-141.02;100.00
8477;BME280;4275;42.854;23.222;2023-06-10T05:07:46;107971.50;;;-141.02;100.00
8477;BME280;4275;42.854;23.222;2023-06-10T05:10:13;107971.50;;;-141.02;100.00
8477;BME280;4275;42.854;23.222;2023-06-10T05:12:43;107971.50;;;-141.02;100.00
8477;BME280;4275;42.854;23.222;2023-06-10T05:15:10;107971.50;;;-141.02;100.00
8477;BME280;4275;42.854;23.222;2023-06-10T05:17:37;107971.50;;;-141.02;100.00
8477;BME280;4275;42.854;23.222;2023-06-10T05:20:05;107971.50;;;-141.02;100.00
8477;BME280;4275;42.854;23.222;2023-06-10T05:22:33;107971.50;;;-141.02;100.00
8477;BME280;4275;42.854;23.222;2023-06-10T05:25:02;107971.50;;;-141.02;100.00
8477;BME280;4275;42.854;23.222;2023-06-10T05:27:29;107971.50;;;-141.02;100.00
8477;BME280;4275;42.854;23.222;2023-06-10T05:29:56;107971.50;;;-141.02;100.00
8477;BME280;4275;42.854;23.222;2023-06-10T05:32:23;107971.50;;;-141.02;100.00
8477;BME280;4275;42.854;23.222;2023-06-10T05:34:50;107971.50;;;-141.02;100.00
8477;BME280;4275;42.854;23.222;2023-06-10T05:37:17;107971.50;;;-141.02;100.00
8477;BME280;4275;42.854;23.222;2023-06-10T05:39:44;107971.50;;;-141.02;100.00
8477;BME280;4275;42.854;23.222;2023-06-10T05:42:13;107971.50;;;-141.02;100.00
8477;BME280;4275;42.854;23.222;2023-06-10T05:44:40;107971.50;;;-141.02;100.00
8477;BME280;4275;42.854;23.222;2023-06-10T05:47:07;107971.50;;;-141.02;100.00
8477;BME280;4275;42.854;23.222;2023-06-10T05:49:34;107971.50;;;-141.02;100.00
8477;BME280;4275;42.854;23.222;2023-06-10T05:52:01;107971.50;;;-141.02;100.00
8477;BME280;4275;42.854;23.222;2023-06-10T05:54:28;107971.50;;;-141.02;100.00
8477;BME280;4275;42.854;23.222;2023-06-10T05:56:55;107971.50;;;-141.02;100.00
8477;BME280;4275;42.854;23.222;2023-06-10T05:59:23;107971.50;;;-141.02;100.00
8477;BME280;4275;42.854;23.222;2023-06-10T06:01:50;107971.50;;;-141.02;100.00
8477;BME280;4275;42.854;23.222;2023-06-10T06:04:17;107971.50;;;-141.02;100.00
8477;BME280;4275;42.854;23.222;2023-06-10T06:06:44;107971.50;;;-141.02;100.00
8477;BME280;4275;42.854;23.222;2023-06-10T06:09:11;107971.50;;;-141.02;100.00
8477;BME280;4275;42.854;23.222;2023-06-10T06:11:38;107971.50;;;-141.02;100.00
8477;BME280;4275;42.854;23.222;2023-06-10T06:14:05;107971.50;;;-141.02;100.00
8477;BME280;4275;42.854;23.222;2023-06-10T06:16:33;107971.50;;;-141.02;100.00
8477;BME280;4275;42.854;23.222;2023-06-10T06:19:00;107971.50;;;-141.02;100.00
8477;BME280;4275;42.854;23.222;2023-06-10T06:21:27;107971.50;;;-141.02;100.00
8477;BME280;4275;42.854;23.222;2023-06-10T06:23:54;107971.50;;;-141.02;100.00
8477;BME280;4275;42.854;23.222;2023-06-10T06:26:21;107971.50;;;-141.02;100.00
8477;BME280;4275;42.854;23.222;2023-06-10T06:28:48;107969.53;;;-141.02;100.00
8477;BME280;4275;42.854;23.222;2023-06-10T06:31:15;107971.50;;;-141.02;100.00
8477;BME280;4275;42.854;23.222;2023-06-10T06:33:44;107969.53;;;-141.02;100.00
8477;BME280;4275;42.854;23.222;2023-06-10T06:36:11;107969.53;;;-141.02;100.00
8477;BME280;4275;42.854;23.222;2023-06-10T06:38:38;107969.53;;;-141.02;100.00
8477;BME280;4275;42.854;23.222;2023-06-10T06:41:05;107969.53;;;-141.02;100.00
8477;BME280;4275;42.854;23.222;2023-06-10T06:43:32;107969.53;;;-141.02;100.00
8477;BME280;4275;42.854;23.222;2023-06-10T06:45:59;107969.53;;;-141.02;100.00
8477;BME280;4275;42.854;23.222;2023-06-10T06:48:26;107969.53;;;-141.02;100.00
8477;BME280;4275;42.854;23.222;2023-06-10T06:50:54;107719.09;;;-141.02;100.00
8477;BME280;4275;42.854;23.222;2023-06-10T06:53:23;107719.09;;;-141.02;100.00
8477;BME280;4275;42.854;23.222;2023-06-10T06:55:50;107719.09;;;-141.02;100.00
8477;BME280;4275;42.854;23.222;2023-06-10T06:58:17;107719.09;;;-141.02;100.00
8477;BME280;4275;42.854;23.222;2023-06-10T07:00:44;107719.09;;;-141.02;100.00
8477;BME280;4275;42.854;23.222;2023-06-10T07:03:11;107719.09;;;-141.02;100.00
8477;BME280;4275;42.854;23.222;2023-06-10T07:05:38;107719.09;;;-141.02;100.00
8477;BME280;4275;42.854;23.222;2023-06-10T07:08:07;107468.69;;;-141.02;100.00
8477;BME280;4275;42.854;23.222;2023-06-10T07:10:34;107468.69;;;-141.02;100.00
8477;BME280;4275;42.854;23.222;2023-06-10T07:13:01;107719.09;;;-141.02;100.00
8477;BME280;4275;42.854;23.222;2023-06-10T07:15:28;107719.09;;;-141.02;100.00
8477;BME280;4275;42.854;23.222;2023-06-10T07:17:55;107719.09;;;-141.02;100.00
8477;BME280;4275;42.854;23.222;2023-06-10T07:20:22;107719.09;;;-141.02;100.00
8477;BME280;4275;42.854;23.222;2023-06-10T07:22:49;107719.09;;;-141.02;100.00
8477;BME280;4275;42.854;23.222;2023-06-10T07:25:17;107719.09;;;-141.02;100.00
8477;BME280;4275;42.854;23.222;2023-06-10T07:27:44;107468.69;;;-141.02;100.00
8477;BME280;4275;42.854;23.222;2023-06-10T07:30:12;107468.69;;;-141.02;100.00
8477;BME280;4275;42.854;23.222;2023-06-10T07:32:39;107468.69;;;-141.02;100.00
8477;BME280;4275;42.854;23.222;2023-06-10T07:35:08;107468.69;;;-141.02;100.00
8477;BME280;4275;42.854;23.222;2023-06-10T07:37:36;107218.31;;;-141.02;100.00
8477;BME280;4275;42.854;23.222;2023-06-10T07:40:04;106967.91;;;-141.02;100.00
8477;BME280;4275;42.854;23.222;2023-06-10T07:42:34;106216.91;;;-141.02;96.24
8477;BME280;4275;42.854;23.222;2023-06-10T07:45:02;105466.03;;;-141.02;95.78
8477;BME280;4275;42.854;23.222;2023-06-10T07:47:29;105716.31;;;-141.02;100.00
8477;BME280;4275;42.854;23.222;2023-06-10T07:49:56;105466.03;;;-141.02;100.00
8477;BME280;4275;42.854;23.222;2023-06-10T07:52:24;105716.31;;;-141.02;98.55
8477;BME280;4275;42.854;23.222;2023-06-10T07:54:51;105466.03;;;-141.02;99.66
8477;BME280;4275;42.854;23.222;2023-06-10T07:57:19;105215.78;;;-141.02;93.53
8477;BME280;4275;42.854;23.222;2023-06-10T07:59:47;104965.56;;;-141.02;89.83
8477;BME280;4275;42.854;23.222;2023-06-10T08:02:14;104965.56;;;-141.02;90.16
8477;BME280;4275;42.854;23.222;2023-06-10T08:04:41;103964.81;;;-141.02;82.25
8477;BME280;4275;42.854;23.222;2023-06-10T08:07:08;103214.44;;;-141.02;80.34
8477;BME280;4275;42.854;23.222;2023-06-10T08:09:35;102214.16;;;-141.02;77.71
8477;BME280;4275;42.854;23.222;2023-06-10T08:12:03;101214.22;;;-141.02;83.65
8477;BME280;4275;42.854;23.222;2023-06-10T08:14:31;102464.22;;;-141.02;87.07
8477;BME280;4275;42.854;23.222;2023-06-10T08:16:59;103214.44;;;-141.02;89.15
8477;BME280;4275;42.854;23.222;2023-06-10T08:19:26;102714.25;;;-141.02;87.01
8477;BME280;4275;42.854;23.222;2023-06-10T08:21:53;101464.19;;;-141.02;80.06
8477;BME280;4275;42.854;23.222;2023-06-10T08:24:20;101964.16;;;-141.02;84.56
8477;BME280;4275;42.854;23.222;2023-06-10T08:26:47;101464.19;;;-141.02;86.26
8477;BME280;4275;42.854;23.222;2023-06-10T08:29:14;101464.19;;;-141.02;84.51
8477;BME280;4275;42.854;23.222;2023-06-10T08:31:42;100214.53;;;-141.02;83.74
8477;BME280;4275;42.854;23.222;2023-06-10T08:34:10;99964.66;;;-141.02;83.93
8477;BME280;4275;42.854;23.222;2023-06-10T08:36:38;99964.66;;;-141.02;86.50
8477;BME280;4275;42.854;23.222;2023-06-10T08:39:04;100214.53;;;-141.02;84.66
8477;BME280;4275;42.854;23.222;2023-06-10T08:41:35;99964.66;;;-141.02;86.30
8477;BME280;4275;42.854;23.222;2023-06-10T08:44:10;100464.44;;;-141.02;85.71
8477;BME280;4275;42.854;23.222;2023-06-10T08:46:45;100214.53;;;-141.02;86.51
8477;BME280;4275;42.854;23.222;2023-06-10T08:49:18;99464.97;;;-141.02;83.70
8477;BME280;4275;42.854;23.222;2023-06-10T08:51:48;99215.16;;;-141.02;85.42
8477;BME280;4275;42.854;23.222;2023-06-10T08:54:20;99215.16;;;-141.02;85.33
8477;BME280;4275;42.854;23.222;2023-06-10T08:56:49;98465.78;;;-141.02;86.06
8477;BME280;4275;42.854;23.222;2023-06-10T08:59:18;98965.34;;;-141.02;86.28
8477;BME280;4275;42.854;23.222;2023-06-10T09:01:47;99714.81;;;-141.02;83.85
8477;BME280;4275;42.854;23.222;2023-06-10T09:04:15;99464.97;;;-141.02;79.56
8477;BME280;4275;42.854;23.222;2023-06-10T09:06:44;100464.44;;;-141.02;80.43
8477;BME280;4275;42.854;23.222;2023-06-10T09:09:12;100714.34;;;-141.02;77.81
8477;BME280;4275;42.854;23.222;2023-06-10T09:11:42;99464.97;;;-141.02;71.55
8477;BME280;4275;42.854;23.222;2023-06-10T09:14:09;99215.16;;;-141.02;73.90
8477;BME280;4275;42.854;23.222;2023-06-10T09:16:37;98465.78;;;-141.02;68.46
8477;BME280;4275;42.854;23.222;2023-06-10T09:19:05;97217.22;;;-141.02;67.11
8477;BME280;4275;42.854;23.222;2023-06-10T09:21:35;97966.31;;;-141.02;72.71
8477;BME280;4275;42.854;23.222;2023-06-10T09:24:03;97217.22;;;-141.02;68.64
8477;BME280;4275;42.854;23.222;2023-06-10T09:26:30;95969.13;;;-141.02;66.55
8477;BME280;4275;42.854;23.222;2023-06-10T09:29:03;95470.00;;;-141.02;65.08
8477;BME280;4275;42.854;23.222;2023-06-10T09:31:31;96717.94;;;-141.02;73.93
8477;BME280;4275;42.854;23.222;2023-06-10T09:34:06;96967.56;;;-141.02;72.22
8477;BME280;4275;42.854;23.222;2023-06-10T09:36:35;95220.47;;;-141.02;62.57
8477;BME280;4275;42.854;23.222;2023-06-10T09:39:03;91728.88;;;-141.02;61.80
8477;BME280;4275;42.854;23.222;2023-06-10T09:41:33;91479.63;;;-141.02;59.83
8477;BME280;4275;42.854;23.222;2023-06-10T09:44:01;92726.13;;;-141.02;62.88
8477;BME280;4275;42.854;23.222;2023-06-10T09:46:31;92476.78;;;-141.02;59.16
8477;BME280;4275;42.854;23.222;2023-06-10T09:48:59;90482.72;;;-141.02;58.55
8477;BME280;4275;42.854;23.222;2023-06-10T09:51:26;90233.56;;;-141.02;61.15
8477;BME280;4275;42.854;23.222;2023-06-10T09:53:55;88987.97;;;-141.02;59.64
8477;BME280;4275;42.854;23.222;2023-06-10T09:56:32;86747.00;;;-141.02;61.26
8477;BME280;4275;42.854;23.222;2023-06-10T09:59:00;85502.66;;;-141.02;59.76
8477;BME280;4275;42.854;23.222;2023-06-10T10:01:28;84010.03;;;-141.02;61.60
8477;BME280;4275;42.854;23.222;2023-06-10T10:03:55;84010.03;;;-141.02;64.42
8477;BME280;4275;42.854;23.222;2023-06-10T10:06:22;83015.31;;;-141.02;68.02
8477;BME280;4275;42.854;23.222;2023-06-10T10:08:50;81026.72;;;-141.02;68.04
8477;BME280;4275;42.854;23.222;2023-06-10T10:11:20;80778.25;;;-141.02;68.41
8477;BME280;4275;42.854;23.222;2023-06-10T10:13:49;81772.31;;;-141.02;70.47
8477;BME280;4275;42.854;23.222;2023-06-10T10:16:18;82269.47;;;-141.02;70.57
8477;BME280;4275;42.854;23.222;2023-06-10T10:18:50;82269.47;;;-141.02;69.95
8477;BME280;4275;42.854;23.222;2023-06-10T10:21:23;82766.69;;;-141.02;68.08
8477;BME280;4275;42.854;23.222;2023-06-10T10:23:53;83263.97;;;-141.02;67.58
8477;BME280;4275;42.854;23.222;2023-06-10T10:26:27;83015.31;;;-141.02;64.46
8477;BME280;4275;42.854;23.222;2023-06-10T10:29:04;83512.63;;;-141.02;64.41
8477;BME280;4275;42.854;23.222;2023-06-10T10:31:34;86000.34;;;-141.02;65.57
8477;BME280;4275;42.854;23.222;2023-06-10T10:34:04;84507.50;;;-141.02;60.91
8477;BME280;4275;42.854;23.222;2023-06-10T10:36:33;85751.50;;;-141.02;60.16
8477;BME280;4275;42.854;23.222;2023-06-10T10:39:02;86498.09;;;-141.02;61.43
8477;BME280;4275;42.854;23.222;2023-06-10T10:41:32;86000.34;;;-141.02;57.92
8477;BME280;4275;42.854;23.222;2023-06-10T10:44:01;85253.84;;;-141.02;56.67
8477;BME280;4275;42.854;23.222;2023-06-10T10:46:30;85005.03;;;-141.02;56.34
8477;BME280;4275;42.854;23.222;2023-06-10T10:49:09;84258.75;;;-141.02;56.77
8477;BME280;4275;42.854;23.222;2023-06-10T10:51:37;83015.31;;;-141.02;55.53
8477;BME280;4275;42.854;23.222;2023-06-10T10:54:11;83015.31;;;-141.02;57.23
8477;BME280;4275;42.854;23.222;2023-06-10T10:57:09;80778.25;;;-141.02;54.27
8477;BME280;4275;42.854;23.222;2023-06-10T10:59:44;84010.03;;;-141.02;57.27
8477;BME280;4275;42.854;23.222;2023-06-10T11:02:15;83263.97;;;-141.02;53.80
8477;BME280;4275;42.854;23.222;2023-06-10T11:04:45;82518.06;;;-141.02;57.72
8477;BME280;4275;42.854;23.222;2023-06-10T11:07:13;78790.94;;;-141.02;54.09
8477;BME280;4275;42.854;23.222;2023-06-10T11:09:57;79784.44;;;-141.02;55.67
8477;BME280;4275;42.854;23.222;2023-06-10T11:12:40;78542.63;;;-141.02;53.34
8477;BME280;4275;42.854;23.222;2023-06-10T11:15:08;81275.25;;;-141.02;55.64
8477;BME280;4275;42.854;23.222;2023-06-10T11:17:35;81026.72;;;-141.02;53.38
8477;BME280;4275;42.854;23.222;2023-06-10T11:20:02;81026.72;;;-141.02;55.05
8477;BME280;4275;42.854;23.222;2023-06-10T11:22:31;78294.28;;;-141.02;51.24
8477;BME280;4275;42.854;23.222;2023-06-10T11:24:58;77301.22;;;-141.02;52.33
8477;BME280;4275;42.854;23.222;2023-06-10T11:27:37;77797.72;;;-141.02;56.83
8477;BME280;4275;42.854;23.222;2023-06-10T11:30:20;76556.59;;;-141.02;53.82
8477;BME280;4275;42.854;23.222;2023-06-10T11:32:51;75067.88;;;-141.02;55.41
8477;BME280;4275;42.854;23.222;2023-06-10T11:35:19;73331.81;;;-141.02;56.34
8477;BME280;4275;42.854;23.222;2023-06-10T11:37:47;74323.72;;;-141.02;59.82
8477;BME280;4275;42.854;23.222;2023-06-10T11:40:15;73579.75;;;-141.02;58.94
8477;BME280;4275;42.854;23.222;2023-06-10T11:42:43;72340.16;;;-141.02;58.16
8477;BME280;4275;42.854;23.222;2023-06-10T11:45:15;73579.75;;;-141.02;59.03
8477;BME280;4275;42.854;23.222;2023-06-10T11:47:56;74571.75;;;-141.02;55.39
8477;BME280;4275;42.854;23.222;2023-06-10T11:50:30;74075.72;;;-141.02;55.83
8477;BME280;4275;42.854;23.222;2023-06-10T11:52:58;74075.72;;;-141.02;52.86
8477;BME280;4275;42.854;23.222;2023-06-10T11:55:25;76060.28;;;-141.02;53.63
8477;BME280;4275;42.854;23.222;2023-06-10T11:57:54;76804.81;;;-141.02;52.88
8477;BME280;4275;42.854;23.222;2023-06-10T12:00:23;73827.72;;;-141.02;50.01
8477;BME280;4275;42.854;23.222;2023-06-10T12:02:56;75067.88;;;-141.02;52.61
8477;BME280;4275;42.854;23.222;2023-06-10T12:05:23;72835.97;;;-141.02;52.96
8477;BME280;4275;42.854;23.222;2023-06-10T12:08:08;71596.63;;;-141.02;52.76
8477;BME280;4275;42.854;23.222;2023-06-10T12:10:40;71596.63;;;-141.02;54.71
8477;BME280;4275;42.854;23.222;2023-06-10T12:13:09;70110.03;;;-141.02;54.30
8477;BME280;4275;42.854;23.222;2023-06-10T12:15:36;71101.03;;;-141.02;54.96
8477;BME280;4275;42.854;23.222;2023-06-10T12:18:03;71348.81;;;-141.02;54.74
8477;BME280;4275;42.854;23.222;2023-06-10T12:20:31;71596.63;;;-141.02;55.39
8477;BME280;4275;42.854;23.222;2023-06-10T12:23:00;69862.34;;;-141.02;54.20
8477;BME280;4275;42.854;23.222;2023-06-10T12:25:34;71844.47;;;-141.02;59.12
8477;BME280;4275;42.854;23.222;2023-06-10T12:28:02;67138.78;;;-141.02;55.28
8477;BME280;4275;42.854;23.222;2023-06-10T12:30:31;67386.28;;;-141.02;59.53
8477;BME280;4275;42.854;23.222;2023-06-10T12:32:59;66891.31;;;-141.02;59.89
8477;BME280;4275;42.854;23.222;2023-06-10T12:35:27;69614.66;;;-141.02;65.52
8477;BME280;4275;42.854;23.222;2023-06-10T12:37:54;70357.75;;;-141.02;69.15
8477;BME280;4275;42.854;23.222;2023-06-10T12:40:25;71844.47;;;-141.02;80.85
8477;BME280;4275;42.854;23.222;2023-06-10T12:42:53;73083.88;;;-141.02;93.76
8477;BME280;4275;42.854;23.222;2023-06-10T12:45:26;71844.47;;;-141.02;94.57
8477;BME280;4275;42.854;23.222;2023-06-10T12:48:06;73579.75;;;-141.02;100.00
8477;BME280;4275;42.854;23.222;2023-06-10T12:50:35;69862.34;;;-141.02;92.30
8477;BME280;4275;42.854;23.222;2023-06-10T12:53:02;75812.16;;;-141.02;100.00
8477;BME280;4275;42.854;23.222;2023-06-10T12:55:29;84010.03;;;-141.02;100.00
8477;BME280;4275;42.854;23.222;2023-06-10T12:57:56;84258.75;;;-141.02;100.00
8477;BME280;4275;42.854;23.222;2023-06-10T13:00:24;86995.94;;;-141.02;100.00
8477;BME280;4275;42.854;23.222;2023-06-10T13:02:55;88240.81;;;-141.02;100.00
8477;BME280;4275;42.854;23.222;2023-06-10T13:05:23;88987.97;;;-141.02;100.00